Time;durP1;ratioP1;P1;durP2;ratioP2;P2;SDS_P1;SDS_P2;PMS_P1;PMS_P2;Temp;Humidity;BMP_temperature;BMP_pressure;BME280_temperature;BME280_humidity;BME280_pressure;Samples;Min_cycle;Max_cycle;Signal;HPM_P1;HPM_P2
2021/09/26 11:35:25;;;;;;;7.60;5.70;;;;;;;22.01;59.24;97483.13;5080624;27;20730;-75
2021/09/26 11:37:53;;;;;;;8.77;5.72;;;;;;;22.20;58.11;97488.31;5079781;28;20054;-73
2021/09/26 11:40:21;;;;;;;7.97;5.45;;;;;;;21.70;59.30;97480.19;5075528;28;20111;-72
2021/09/26 11:42:51;;;;;;;6.85;4.78;;;;;;;23.99;52.08;97475.00;5078256;28;20032;-75
2021/09/26 11:45:19;;;;;;;6.18;4.38;;;;;;;27.90;43.67;97479.56;5061932;28;20024;-73
2021/09/26 11:48:00;;;;;;;8.32;4.72;;;;;;;27.09;44.34;97473.34;5079590;28;20032;-73
2021/09/26 11:50:29;;;;;;;6.30;4.40;;;;;;;28.79;40.83;97478.09;5075673;28;20725;-73
2021/09/26 11:52:54;;;;;;;7.57;4.60;;;;;;;26.43;45.85;97466.13;5075293;28;20458;-73
2021/09/26 11:55:20;;;;;;;7.93;5.68;;;;;;;27.00;44.63;97468.78;5079702;28;20526;-74
2021/09/26 11:57:54;;;;;;;7.45;5.63;;;;;;;26.69;45.48;97467.59;5071028;28;20519;-74
2021/09/26 12:00:34;;;;;;;7.13;5.30;;;;;;;27.77;44.31;97470.53;5061046;28;20575;-74
2021/09/26 12:03:23;;;;;;;;;;;;;;;25.91;47.54;97471.38;5059679;28;20551;-75
2021/09/26 12:05:48;;;;;;;7.30;4.80;;;;;;;27.01;44.93;97469.56;5049305;28;19920;-75
2021/09/26 12:08:14;;;;;;;9.10;5.65;;;;;;;26.26;47.70;97463.63;5080047;28;20299;-74
2021/09/26 12:10:40;;;;;;;8.45;4.78;;;;;;;25.92;47.79;97463.88;5056516;28;20523;-74
2021/09/26 12:13:19;;;;;;;6.63;5.57;;;;;;;25.05;50.34;97462.84;5071111;28;20150;-73
2021/09/26 12:15:46;;;;;;;9.20;6.25;;;;;;;26.40;47.74;97457.69;5072158;28;20024;-73
2021/09/26 12:18:19;;;;;;;7.88;5.60;;;;;;;26.17;48.00;97455.47;5077193;28;20035;-74
2021/09/26 12:20:45;;;;;;;5.75;5.10;;;;;;;25.73;49.23;97450.66;5074907;28;20081;-74
2021/09/26 12:23:23;;;;;;;7.30;5.35;;;;;;;26.08;48.22;97448.09;5076728;28;20040;-75
2021/09/26 12:26:00;;;;;;;6.65;5.20;;;;;;;26.34;47.47;97448.81;5051430;28;20021;-77
2021/09/26 12:28:26;;;;;;;8.80;5.60;;;;;;;27.41;45.32;97445.50;5051830;28;20111;-77
2021/09/26 12:30:54;;;;;;;7.43;5.05;;;;;;;26.53;46.91;97450.13;5077921;28;20032;-77
2021/09/26 12:33:44;;;;;;;6.00;5.00;;;;;;;27.13;45.92;97446.47;5061154;28;20670;-78
2021/09/26 12:36:16;;;;;;;6.80;4.88;;;;;;;26.55;46.43;97442.22;5070400;28;20533;-77
2021/09/26 12:38:47;;;;;;;7.28;5.07;;;;;;;25.53;48.76;97433.81;5067748;28;20632;-77
2021/09/26 12:41:18;;;;;;;7.57;5.43;;;;;;;25.65;48.24;97422.72;5075438;28;20381;-77
2021/09/26 12:43:49;;;;;;;6.90;4.82;;;;;;;26.22;47.05;97424.69;5059389;28;20483;-77
2021/09/26 12:46:16;;;;;;;5.50;4.75;;;;;;;25.83;47.79;97430.75;5064284;28;20110;-77
2021/09/26 12:48:45;;;;;;;6.25;5.03;;;;;;;26.59;46.34;97435.63;5060919;28;20440;-77
2021/09/26 12:51:13;;;;;;;7.30;4.90;;;;;;;27.15;45.67;97430.22;5047993;28;20024;-76
2021/09/26 12:53:42;;;;;;;9.35;5.25;;;;;;;25.45;49.30;97425.28;5063552;28;20032;-76
2021/09/26 12:56:08;;;;;;;9.88;6.18;;;;;;;24.99;49.38;97421.88;5060588;28;20056;-76
2021/09/26 12:58:38;;;;;;;9.65;7.63;;;;;;;24.94;49.20;97422.91;5066397;28;20131;-77
2021/09/26 13:01:21;;;;;;;7.72;5.43;;;;;;;24.24;52.23;97418.97;5050270;28;20027;-77
2021/09/26 13:04:00;;;;;;;7.25;5.55;;;;;;;23.94;54.02;97421.84;5052345;28;20114;-76
2021/09/26 13:06:55;;;;;;;7.93;5.35;;;;;;;24.76;52.00;97419.56;5060413;28;20085;-77
2021/09/26 13:09:35;;;;;;;6.40;5.00;;;;;;;26.02;47.11;97415.44;5035799;28;20028;-77
2021/09/26 13:12:36;;;;;;;6.68;4.90;;;;;;;26.51;47.69;97419.13;5033937;28;20055;-77
2021/09/26 13:15:04;;;;;;;6.40;4.35;;;;;;;26.20;47.32;97421.47;5061910;28;20069;-77
2021/09/26 13:17:29;;;;;;;5.63;4.40;;;;;;;25.72;47.96;97413.78;5059995;28;20063;-77
2021/09/26 13:19:55;;;;;;;5.22;4.20;;;;;;;25.13;49.55;97421.53;5070540;28;20032;-76
2021/09/26 13:22:24;;;;;;;8.48;5.13;;;;;;;24.93;50.33;97421.31;5088330;28;20013;-78
2021/09/26 13:24:59;;;;;;;10.80;7.82;;;;;;;24.78;51.15;97420.81;5076078;28;20480;-77
2021/09/26 13:27:27;;;;;;;6.05;4.95;;;;;;;24.51;51.55;97414.78;5060812;28;20033;-77
2021/09/26 13:29:52;;;;;;;8.00;5.18;;;;;;;24.81;51.66;97416.56;5060929;28;20058;-76
2021/09/26 13:32:47;;;;;;;7.47;5.15;;;;;;;24.68;51.73;97412.94;5038739;28;20020;-77
2021/09/26 13:35:18;;;;;;;6.53;5.07;;;;;;;24.23;52.42;97425.66;5050285;28;20047;-77
2021/09/26 13:38:02;;;;;;;6.18;4.50;;;;;;;24.16;52.49;97415.16;5053177;28;20024;-77
2021/09/26 13:40:29;;;;;;;8.18;5.07;;;;;;;23.64;54.16;97429.09;5062529;28;20029;-77
2021/09/26 13:42:57;;;;;;;8.40;5.78;;;;;;;23.74;53.39;97425.09;5061557;28;20241;-77
2021/09/26 13:45:23;;;;;;;8.43;6.03;;;;;;;23.60;54.24;97424.59;5049479;28;20043;-78
2021/09/26 13:47:48;;;;;;;6.88;5.20;;;;;;;23.68;54.19;97426.47;5041221;28;20423;-78
2021/09/26 13:50:14;;;;;;;9.40;5.40;;;;;;;23.05;56.13;97429.94;5063642;28;20040;-77
2021/09/26 13:52:39;;;;;;;7.78;5.78;;;;;;;22.94;57.33;97430.34;5054880;28;20055;-77
2021/09/26 13:55:05;;;;;;;8.10;5.47;;;;;;;23.31;57.31;97426.22;5050284;28;20032;-78
2021/09/26 13:57:31;;;;;;;8.05;5.60;;;;;;;22.98;57.80;97427.72;5044624;28;20029;-77
2021/09/26 13:59:57;;;;;;;9.00;5.93;;;;;;;22.76;58.20;97428.78;5058359;28;20028;-76
2021/09/26 14:02:23;;;;;;;7.32;5.38;;;;;;;23.04;57.97;97422.81;5058682;28;20119;-78
2021/09/26 14:04:48;;;;;;;8.52;5.13;;;;;;;22.79;58.74;97430.88;5054034;28;20446;-77
2021/09/26 14:07:14;;;;;;;7.45;5.63;;;;;;;22.22;61.13;97434.44;5061196;28;20028;-78
2021/09/26 14:09:40;;;;;;;7.85;6.20;;;;;;;22.12;61.46;97451.34;5052527;28;20025;-79
2021/09/26 14:12:08;;;;;;;8.88;6.65;;;;;;;21.41;62.70;97442.25;5056368;28;20032;-78
2021/09/26 14:14:33;;;;;;;9.73;6.53;;;;;;;21.03;63.16;97447.19;5030022;28;20028;-78
2021/09/26 14:16:59;;;;;;;8.45;6.85;;;;;;;20.83;63.59;97439.47;5067308;28;20028;-77
2021/09/26 14:19:24;;;;;;;9.57;6.18;;;;;;;21.20;61.99;97440.09;5059724;28;20028;-78
2021/09/26 14:21:50;;;;;;;8.57;6.50;;;;;;;20.46;64.40;97434.94;5051254;28;20020;-77
2021/09/26 14:24:15;;;;;;;8.75;6.75;;;;;;;19.77;66.56;97447.88;5059487;28;20515;-78
2021/09/26 14:26:41;;;;;;;9.45;6.78;;;;;;;19.22;68.90;97444.97;5069835;28;20025;-77
2021/09/26 14:29:06;;;;;;;11.35;6.65;;;;;;;19.28;68.79;97448.44;5064846;28;20066;-77
2021/09/26 14:31:32;;;;;;;7.65;6.13;;;;;;;18.96;69.97;97447.41;5056471;28;20083;-78
2021/09/26 14:33:58;;;;;;;7.78;5.97;;;;;;;18.78;70.92;97447.19;5074675;28;20074;-77
2021/09/26 14:36:26;;;;;;;8.23;6.22;;;;;;;18.69;71.03;97443.53;5057988;28;20033;-78
2021/09/26 14:38:51;;;;;;;8.85;6.43;;;;;;;18.55;71.42;97446.25;5065150;28;20016;-77
2021/09/26 14:41:18;;;;;;;8.13;5.97;;;;;;;18.58;71.29;97456.63;5062461;28;20036;-77
2021/09/26 14:43:44;;;;;;;6.85;5.78;;;;;;;18.98;69.99;97442.41;5062742;28;20059;-77
2021/09/26 14:46:12;;;;;;;7.80;6.10;;;;;;;19.16;69.18;97448.13;5040182;28;20072;-77
2021/09/26 14:48:38;;;;;;;6.75;5.22;;;;;;;19.50;68.41;97438.63;5046601;28;20033;-77
2021/09/26 14:51:04;;;;;;;8.38;4.70;;;;;;;19.67;67.42;97426.13;5059265;28;20029;-77
2021/09/26 14:53:29;;;;;;;6.30;4.68;;;;;;;19.50;67.54;97424.88;5058997;28;20020;-78
2021/09/26 14:55:55;;;;;;;6.63;4.88;;;;;;;19.71;66.68;97416.16;5053410;28;20024;-78
2021/09/26 14:58:20;;;;;;;7.18;4.65;;;;;;;19.60;66.99;97430.13;5063985;28;20483;-77
2021/09/26 15:00:45;;;;;;;7.50;5.47;;;;;;;19.51;67.49;97434.75;5060688;28;20062;-78
2021/09/26 15:03:11;;;;;;;5.85;4.45;;;;;;;19.48;67.19;97430.69;5051887;28;20033;-79
2021/09/26 15:05:37;;;;;;;6.00;4.90;;;;;;;19.47;67.37;97444.72;5063063;28;20067;-78
2021/09/26 15:08:02;;;;;;;8.30;5.82;;;;;;;19.28;67.75;97458.59;5065153;28;20072;-78
2021/09/26 15:10:28;;;;;;;6.82;5.22;;;;;;;19.35;67.61;97453.50;5040878;28;20052;-78
2021/09/26 15:12:55;;;;;;;7.60;5.18;;;;;;;19.11;67.95;97449.03;5060851;28;20024;-78
2021/09/26 15:15:23;;;;;;;6.18;5.10;;;;;;;19.28;68.31;97456.66;5045696;28;20502;-78
2021/09/26 15:17:48;;;;;;;8.48;5.80;;;;;;;19.08;69.36;97458.69;5064081;28;20028;-78
2021/09/26 15:20:17;;;;;;;25.15;20.13;;;;;;;19.01;68.85;97458.25;5053293;28;20059;-78
2021/09/26 15:22:43;;;;;;;7.05;6.18;;;;;;;18.91;68.96;97467.50;5042523;28;20077;-78
2021/09/26 15:25:11;;;;;;;10.90;9.05;;;;;;;18.70;69.57;97470.66;5057762;28;20028;-78
2021/09/26 15:27:37;;;;;;;6.88;5.90;;;;;;;18.74;69.34;97470.03;5043760;28;20730;-79
2021/09/26 15:30:04;;;;;;;10.32;6.70;;;;;;;18.37;70.60;97464.41;5047799;28;20025;-78
2021/09/26 15:32:29;;;;;;;8.82;6.85;;;;;;;18.29;71.14;97468.66;5061156;28;20033;-78
2021/09/26 15:34:54;;;;;;;7.95;6.43;;;;;;;18.27;71.20;97473.59;5064269;28;20033;-78
2021/09/26 15:37:20;;;;;;;7.80;6.53;;;;;;;18.21;71.43;97475.63;5063205;28;20029;-78
2021/09/26 15:39:45;;;;;;;9.00;7.03;;;;;;;18.24;71.17;97471.47;5055371;28;20025;-79
2021/09/26 15:42:11;;;;;;;8.70;7.38;;;;;;;18.06;71.40;97458.28;5060909;28;20043;-78
2021/09/26 15:44:36;;;;;;;8.95;7.03;;;;;;;18.14;71.41;97469.72;5044114;28;20119;-77
2021/09/26 15:47:02;;;;;;;9.77;8.43;;;;;;;18.09;71.66;97462.38;5047281;28;20064;-78
2021/09/26 15:49:29;;;;;;;8.32;6.93;;;;;;;17.83;71.97;97467.44;5053568;28;20114;-78
2021/09/26 15:51:56;;;;;;;8.82;7.45;;;;;;;17.84;72.14;97469.84;5062362;28;20090;-78
2021/09/26 15:54:22;;;;;;;9.43;8.13;;;;;;;17.90;71.33;97470.59;5028810;28;20021;-79
2021/09/26 15:56:47;;;;;;;9.27;7.53;;;;;;;17.90;71.46;97467.88;5048371;28;20034;-78
2021/09/26 15:59:13;;;;;;;14.73;11.65;;;;;;;17.94;71.31;97466.16;5059355;28;20552;-78
2021/09/26 16:01:38;;;;;;;9.48;7.68;;;;;;;17.86;71.47;97458.63;5053793;28;20148;-79
2021/09/26 16:04:03;;;;;;;8.75;7.70;;;;;;;17.78;71.91;97474.63;5040044;28;20033;-79
2021/09/26 16:06:29;;;;;;;9.35;8.18;;;;;;;17.66;72.18;97475.06;5038043;28;20032;-78
2021/09/26 16:08:54;;;;;;;10.10;8.23;;;;;;;17.63;72.29;97467.44;5057757;28;20079;-79
2021/09/26 16:11:20;;;;;;;12.10;9.13;;;;;;;17.60;71.64;97465.31;5038879;28;20195;-78
2021/09/26 16:13:47;;;;;;;10.23;7.57;;;;;;;17.63;71.65;97475.66;5057907;28;20387;-79
2021/09/26 16:16:12;;;;;;;12.02;8.23;;;;;;;17.53;71.83;97479.34;5046902;28;20032;-79
2021/09/26 16:18:38;;;;;;;12.88;9.45;;;;;;;17.63;71.58;97486.63;5040987;28;20025;-80
2021/09/26 16:21:08;;;;;;;10.38;8.00;;;;;;;17.50;71.68;97482.69;5040328;28;20029;-80
2021/09/26 16:23:34;;;;;;;9.52;8.30;;;;;;;17.50;71.61;97485.41;5078564;28;20053;-77
2021/09/26 16:26:01;;;;;;;10.00;7.95;;;;;;;17.44;71.85;97481.13;5063740;28;20051;-78
2021/09/26 16:28:29;;;;;;;11.18;8.93;;;;;;;17.41;71.98;97481.72;5054764;28;20136;-78
2021/09/26 16:30:55;;;;;;;23.38;18.85;;;;;;;17.41;71.99;97490.75;5059782;28;20166;-78
2021/09/26 16:33:26;;;;;;;11.77;8.57;;;;;;;17.39;71.49;97492.13;5065270;28;20831;-79
2021/09/26 16:35:52;;;;;;;10.30;7.93;;;;;;;17.28;71.81;97495.00;5047813;28;20206;-78
2021/09/26 16:38:18;;;;;;;10.27;8.10;;;;;;;17.31;71.67;97501.81;5067119;28;20034;-78
2021/09/26 16:40:43;;;;;;;10.38;8.25;;;;;;;17.25;71.26;97503.00;5053908;28;20327;-78
2021/09/26 16:43:09;;;;;;;12.10;8.90;;;;;;;17.25;71.19;97500.25;5041490;28;20126;-78
2021/09/26 16:45:38;;;;;;;9.40;7.90;;;;;;;17.19;71.83;97506.88;5044791;28;20039;-80
2021/09/26 16:48:04;;;;;;;9.98;7.85;;;;;;;17.19;70.90;97499.50;5060576;28;20029;-79
2021/09/26 16:50:32;;;;;;;10.32;8.43;;;;;;;17.24;71.36;97502.16;5047926;28;20032;-79
2021/09/26 16:52:58;;;;;;;11.10;8.73;;;;;;;17.11;71.51;97505.63;5064682;28;20056;-79
2021/09/26 16:55:26;;;;;;;35.42;25.50;;;;;;;17.16;71.26;97511.84;5062081;28;20108;-79
2021/09/26 16:57:52;;;;;;;19.15;14.95;;;;;;;17.14;70.99;97515.97;5045460;28;20495;-79
2021/09/26 17:00:21;;;;;;;11.15;8.52;;;;;;;17.17;71.21;97518.13;5059856;28;20109;-79
2021/09/26 17:02:50;;;;;;;12.25;8.68;;;;;;;17.23;70.87;97516.97;5066902;28;20032;-79
2021/09/26 17:05:16;;;;;;;13.30;8.50;;;;;;;17.24;70.14;97509.56;5067896;28;20037;-80
2021/09/26 17:07:41;;;;;;;10.80;8.55;;;;;;;17.21;70.46;97518.38;5058767;28;20499;-79
2021/09/26 17:10:10;;;;;;;10.20;8.18;;;;;;;17.19;71.24;97526.88;5060251;28;20061;-78
2021/09/26 17:12:37;;;;;;;11.07;8.52;;;;;;;17.01;72.23;97523.75;5058405;28;20036;-79
2021/09/26 17:15:05;;;;;;;11.73;8.90;;;;;;;17.06;72.11;97525.63;5049948;28;20032;-79
2021/09/26 17:17:30;;;;;;;10.38;8.55;;;;;;;16.91;72.14;97529.31;5045370;28;20844;-78
2021/09/26 17:19:56;;;;;;;11.40;8.68;;;;;;;16.83;72.18;97527.22;5064606;28;20028;-78
2021/09/26 17:22:21;;;;;;;12.73;9.38;;;;;;;16.86;72.75;97537.56;5067180;28;20516;-78
2021/09/26 17:24:46;;;;;;;10.90;8.60;;;;;;;16.76;73.45;97533.84;5066260;28;20058;-79
2021/09/26 17:27:12;;;;;;;10.68;8.52;;;;;;;16.61;74.19;97533.97;5068285;28;20036;-79
2021/09/26 17:29:39;;;;;;;15.40;10.65;;;;;;;16.60;74.45;97537.81;5064425;28;20029;-79
2021/09/26 17:32:05;;;;;;;13.18;9.43;;;;;;;16.56;74.42;97539.50;5065914;28;20116;-78
2021/09/26 17:34:34;;;;;;;12.63;9.50;;;;;;;16.47;75.06;97545.59;5066881;28;20107;-79
2021/09/26 17:37:00;;;;;;;11.65;8.73;;;;;;;16.51;75.58;97541.19;5043310;28;20132;-78
2021/09/26 17:39:25;;;;;;;11.10;8.80;;;;;;;16.38;76.13;97547.31;5067019;28;20063;-78
2021/09/26 17:41:51;;;;;;;12.30;9.73;;;;;;;16.37;77.14;97549.22;5049502;28;20078;-78
2021/09/26 17:44:16;;;;;;;14.85;10.43;;;;;;;16.42;77.92;97553.84;5068138;28;20078;-78
2021/09/26 17:46:42;;;;;;;12.65;9.60;;;;;;;16.21;77.67;97564.09;5046193;28;20032;-79
2021/09/26 17:49:07;;;;;;;12.82;10.60;;;;;;;16.03;79.00;97560.13;5048176;28;20021;-79
2021/09/26 17:51:33;;;;;;;12.93;9.93;;;;;;;16.17;78.53;97561.13;5065273;28;20131;-79
2021/09/26 17:53:59;;;;;;;13.38;10.13;;;;;;;16.01;78.98;97560.41;5066033;28;20021;-79
2021/09/26 17:56:25;;;;;;;14.45;10.93;;;;;;;15.83;80.47;97557.22;5059822;28;20035;-78
2021/09/26 17:58:50;;;;;;;16.38;11.32;;;;;;;15.81;80.40;97555.88;5047773;28;20521;-78
2021/09/26 18:01:17;;;;;;;15.65;11.20;;;;;;;15.77;80.63;97558.31;5047200;28;20153;-78
2021/09/26 18:03:44;;;;;;;15.68;11.63;;;;;;;15.72;80.79;97552.91;5064919;28;20883;-78
2021/09/26 18:06:11;;;;;;;13.35;10.40;;;;;;;15.77;80.77;97555.59;5064704;28;20082;-78
2021/09/26 18:08:36;;;;;;;15.55;11.35;;;;;;;15.46;81.96;97555.75;5065016;28;20035;-78
2021/09/26 18:11:02;;;;;;;17.23;11.80;;;;;;;15.42;82.36;97554.69;5046776;28;20036;-78
2021/09/26 18:13:27;;;;;;;16.35;12.65;;;;;;;15.40;82.37;97559.63;5045101;28;20025;-79
2021/09/26 18:15:54;;;;;;;15.00;12.15;;;;;;;15.43;82.24;97562.59;5053874;28;20086;-78
2021/09/26 18:18:20;;;;;;;16.25;12.50;;;;;;;15.19;82.84;97568.66;5042094;28;20877;-78
2021/09/26 18:20:49;;;;;;;18.88;14.45;;;;;;;15.16;82.76;97563.78;5060202;28;20033;-78
2021/09/26 18:23:17;;;;;;;16.50;11.48;;;;;;;15.33;82.20;97565.34;5046774;28;20092;-79
2021/09/26 18:25:43;;;;;;;16.73;12.60;;;;;;;15.33;82.43;97562.63;5061199;28;20035;-78
2021/09/26 18:28:11;;;;;;;20.05;14.25;;;;;;;15.25;82.39;97565.94;5060496;28;20120;-78
2021/09/26 18:30:38;;;;;;;17.48;13.38;;;;;;;15.19;82.82;97568.66;5062665;28;20079;-78
2021/09/26 18:33:04;;;;;;;15.68;12.10;;;;;;;15.23;82.52;97573.56;5061382;28;20664;-78
2021/09/26 18:35:30;;;;;;;15.45;12.02;;;;;;;15.16;82.70;97566.50;5069234;28;20008;-79
2021/09/26 18:37:55;;;;;;;16.42;11.80;;;;;;;15.11;83.04;97580.13;5089057;28;20032;-78
2021/09/26 18:40:23;;;;;;;16.02;12.77;;;;;;;15.08;82.91;97572.53;5070220;28;20691;-79
2021/09/26 18:42:50;;;;;;;16.75;14.07;;;;;;;15.10;82.77;97575.78;5052472;28;20253;-78
2021/09/26 18:45:18;;;;;;;18.20;12.82;;;;;;;15.05;82.59;97563.00;5079396;28;20020;-79
2021/09/26 18:47:44;;;;;;;34.63;23.58;;;;;;;15.03;82.80;97576.06;5084166;28;20036;-78
2021/09/26 18:50:09;;;;;;;18.65;12.43;;;;;;;15.03;82.82;97575.25;5051115;28;20174;-78
2021/09/26 18:52:35;;;;;;;16.48;12.68;;;;;;;14.98;82.98;97576.09;5063557;28;20029;-77
2021/09/26 18:55:00;;;;;;;16.17;12.85;;;;;;;14.92;83.17;97575.28;5057490;28;20017;-78
2021/09/26 18:57:28;;;;;;;15.20;12.45;;;;;;;15.04;83.01;97579.63;5042829;28;20499;-77
2021/09/26 18:59:54;;;;;;;15.45;12.70;;;;;;;15.02;82.93;97577.19;5041154;28;20047;-78
2021/09/26 19:02:19;;;;;;;16.85;11.85;;;;;;;15.08;82.71;97580.72;5044500;28;20039;-78
2021/09/26 19:04:44;;;;;;;14.65;11.75;;;;;;;15.10;82.60;97583.97;5052995;28;20171;-78
2021/09/26 19:07:10;;;;;;;15.23;11.88;;;;;;;15.00;82.74;97592.19;5056774;28;20024;-78
2021/09/26 19:09:35;;;;;;;25.10;19.02;;;;;;;14.88;83.12;97581.53;5062706;28;20025;-78
2021/09/26 19:12:01;;;;;;;19.75;14.77;;;;;;;14.99;82.83;97585.91;5051644;28;20024;-77
2021/09/26 19:14:28;;;;;;;17.20;12.82;;;;;;;14.93;83.14;97584.28;5035941;28;20020;-78
2021/09/26 19:16:54;;;;;;;14.77;11.30;;;;;;;14.99;82.59;97582.34;5047162;28;20027;-78
2021/09/26 19:19:20;;;;;;;13.93;11.43;;;;;;;14.99;82.51;97585.91;5060954;28;20024;-77
2021/09/26 19:21:46;;;;;;;15.68;11.93;;;;;;;15.02;82.47;97589.97;5045212;28;20037;-78
2021/09/26 19:24:11;;;;;;;15.98;12.95;;;;;;;14.76;83.03;97593.56;5063609;28;20088;-78
2021/09/26 19:26:37;;;;;;;16.20;13.10;;;;;;;14.78;82.73;97577.75;5036362;28;20841;-77
2021/09/26 19:29:03;;;;;;;16.38;13.60;;;;;;;14.73;83.15;97587.81;5059722;28;20036;-77
2021/09/26 19:31:29;;;;;;;16.65;12.90;;;;;;;14.73;82.97;97576.91;5080175;28;20048;-78
2021/09/26 19:33:57;;;;;;;16.08;12.25;;;;;;;14.76;82.78;97587.25;5082132;28;20099;-80
2021/09/26 19:36:23;;;;;;;16.27;12.43;;;;;;;14.61;83.47;97579.91;5051031;28;20091;-79
2021/09/26 19:38:52;;;;;;;19.73;14.07;;;;;;;14.41;84.22;97578.84;5092450;28;20042;-79
2021/09/26 19:41:19;;;;;;;18.33;12.38;;;;;;;14.51;83.82;97583.44;5093962;28;20068;-79
2021/09/26 19:43:47;;;;;;;18.42;13.05;;;;;;;14.53;83.72;97584.00;5080665;28;20033;-78
2021/09/26 19:46:13;;;;;;;15.48;12.15;;;;;;;14.51;83.45;97591.63;5064909;28;20064;-78
2021/09/26 19:48:39;;;;;;;16.02;12.55;;;;;;;14.57;83.54;97591.34;5067445;28;20066;-78
2021/09/26 19:51:06;;;;;;;15.38;12.20;;;;;;;14.59;83.29;97593.81;5060567;28;20029;-79
2021/09/26 19:53:32;;;;;;;17.63;12.20;;;;;;;14.59;83.04;97590.28;5063731;28;20115;-79
2021/09/26 19:55:57;;;;;;;17.70;12.35;;;;;;;14.56;83.18;97588.94;5074818;28;20063;-78
2021/09/26 19:58:25;;;;;;;15.70;11.57;;;;;;;14.47;83.52;97588.63;5070517;28;20078;-77
2021/09/26 20:00:50;;;;;;;14.30;11.13;;;;;;;14.50;83.33;97592.72;5061360;28;20052;-78
2021/09/26 20:03:16;;;;;;;17.35;12.38;;;;;;;14.44;83.20;97587.28;5060135;28;20032;-78
2021/09/26 20:05:41;;;;;;;16.38;12.60;;;;;;;14.32;83.45;97584.00;5069725;28;20733;-79
2021/09/26 20:08:07;;;;;;;22.70;15.98;;;;;;;14.39;83.25;97573.66;5067534;28;20035;-78
2021/09/26 20:10:35;;;;;;;22.17;14.75;;;;;;;14.46;83.15;97584.28;5065202;28;20028;-79
2021/09/26 20:13:01;;;;;;;17.20;13.63;;;;;;;14.47;83.52;97585.09;5063258;28;20047;-78
2021/09/26 20:15:30;;;;;;;15.15;11.73;;;;;;;14.44;83.04;97586.44;5049428;28;20044;-78
2021/09/26 20:17:56;;;;;;;16.33;12.23;;;;;;;14.46;82.87;97587.00;5050803;28;20020;-78
2021/09/26 20:20:23;;;;;;;16.40;12.30;;;;;;;14.43;82.69;97588.38;5064986;28;20031;-78
2021/09/26 20:22:49;;;;;;;15.05;12.00;;;;;;;14.45;82.73;97590.84;5063473;28;20052;-78
2021/09/26 20:25:15;;;;;;;16.52;11.88;;;;;;;14.33;82.81;97582.09;5069010;28;20055;-78
2021/09/26 20:27:42;;;;;;;16.98;12.82;;;;;;;14.16;83.51;97586.69;5069292;28;20031;-79
2021/09/26 20:30:09;;;;;;;16.92;12.88;;;;;;;14.14;83.73;97594.34;5071011;28;20831;-79
2021/09/26 20:32:34;;;;;;;17.55;13.15;;;;;;;14.15;83.45;97598.69;5061782;28;20040;-79
2021/09/26 20:34:59;;;;;;;19.98;13.40;;;;;;;14.07;83.75;97599.22;5052179;28;20436;-79
2021/09/26 20:37:25;;;;;;;16.38;12.77;;;;;;;14.09;84.01;97599.78;5050753;28;20021;-79
2021/09/26 20:39:50;;;;;;;20.70;13.98;;;;;;;14.14;83.86;97602.50;5050957;28;20066;-79
2021/09/26 20:42:16;;;;;;;19.75;14.02;;;;;;;14.09;84.00;97599.78;5055376;28;20063;-79
2021/09/26 20:44:42;;;;;;;20.50;14.10;;;;;;;14.00;84.17;97598.66;5072363;28;20412;-79
2021/09/26 20:47:07;;;;;;;19.15;14.05;;;;;;;14.03;84.21;97607.09;5061874;28;20033;-79
2021/09/26 20:49:33;;;;;;;19.95;13.68;;;;;;;14.08;83.74;97603.56;5066339;28;20036;-79
2021/09/26 20:51:58;;;;;;;16.55;13.80;;;;;;;14.13;84.01;97591.88;5036329;28;20120;-77
2021/09/26 20:54:23;;;;;;;18.35;14.60;;;;;;;14.19;83.99;97601.69;5061832;28;20036;-79
2021/09/26 20:56:54;;;;;;;16.35;12.95;;;;;;;14.21;83.77;97599.50;5072124;28;20033;-80
2021/09/26 20:59:19;;;;;;;17.65;12.75;;;;;;;14.23;83.41;97601.97;5057636;28;20620;-78
2021/09/26 21:01:45;;;;;;;17.75;13.30;;;;;;;14.14;83.59;97594.34;5054187;28;20036;-79
2021/09/26 21:04:10;;;;;;;16.38;11.88;;;;;;;14.17;83.17;97596.53;5034915;28;20032;-79
2021/09/26 21:06:35;;;;;;;16.40;12.27;;;;;;;14.16;83.28;97605.75;5064515;28;20150;-77
2021/09/26 21:09:02;;;;;;;16.92;12.95;;;;;;;14.20;83.39;97599.78;5034050;28;20059;-76
2021/09/26 21:11:28;;;;;;;16.42;13.02;;;;;;;14.15;83.42;97606.84;5060909;28;20024;-77
2021/09/26 21:13:53;;;;;;;18.00;13.00;;;;;;;14.17;83.64;97615.59;5063374;28;20020;-77
2021/09/26 21:16:18;;;;;;;15.32;12.48;;;;;;;14.15;83.33;97603.31;5048883;28;20064;-77
2021/09/26 21:18:44;;;;;;;35.63;27.42;;;;;;;14.10;83.65;97611.47;5046467;28;20031;-79
2021/09/26 21:21:10;;;;;;;21.30;14.45;;;;;;;14.13;83.64;97619.09;5062444;28;20127;-80
2021/09/26 21:23:35;;;;;;;21.83;14.88;;;;;;;14.05;84.32;97618.53;5050193;28;20060;-77
2021/09/26 21:26:01;;;;;;;19.65;14.10;;;;;;;14.07;84.44;97625.63;5061733;28;20032;-76
2021/09/26 21:28:27;;;;;;;20.35;14.93;;;;;;;14.04;84.29;97624.25;5053466;28;20083;-76
2021/09/26 21:30:54;;;;;;;21.63;13.63;;;;;;;14.02;84.57;97626.44;5061530;28;20032;-77
2021/09/26 21:33:20;;;;;;;19.65;14.75;;;;;;;14.05;84.72;97634.06;5029349;28;20074;-77
2021/09/26 21:35:46;;;;;;;17.50;14.05;;;;;;;14.12;84.41;97631.09;5061935;28;20486;-77
2021/09/26 21:38:18;;;;;;;21.02;14.82;;;;;;;14.10;84.26;97639.53;5046885;28;20046;-76
2021/09/26 21:40:44;;;;;;;22.27;16.38;;;;;;;14.10;84.14;97633.25;5050620;28;20033;-77
2021/09/26 21:43:10;;;;;;;23.80;15.13;;;;;;;14.04;84.63;97633.25;5062653;28;20097;-77
2021/09/26 21:45:35;;;;;;;19.92;14.05;;;;;;;14.03;84.65;97634.34;5046490;28;20025;-77
2021/09/26 21:48:01;;;;;;;18.08;13.23;;;;;;;14.02;84.82;97637.31;5065640;28;20020;-77
2021/09/26 21:50:30;;;;;;;21.05;14.75;;;;;;;14.05;84.62;97632.16;5057427;28;20535;-77
2021/09/26 21:52:56;;;;;;;19.05;13.90;;;;;;;14.10;84.71;97634.06;5060520;28;20123;-77
2021/09/26 21:55:25;;;;;;;19.60;14.35;;;;;;;14.09;84.36;97623.44;5048772;28;20021;-77
2021/09/26 21:57:51;;;;;;;18.50;15.07;;;;;;;14.10;84.54;97628.63;5070205;28;20028;-78
2021/09/26 22:00:28;;;;;;;17.80;13.38;;;;;;;14.17;84.59;97633.81;5069548;28;20047;-78
2021/09/26 22:02:54;;;;;;;17.73;13.25;;;;;;;14.20;84.47;97632.47;5051137;28;20380;-77
2021/09/26 22:05:21;;;;;;;18.27;14.48;;;;;;;14.00;84.83;97636.75;5042863;28;20115;-77
2021/09/26 22:07:46;;;;;;;18.88;14.15;;;;;;;13.99;85.20;97635.97;5057405;28;20067;-78
2021/09/26 22:10:12;;;;;;;18.92;15.23;;;;;;;14.02;85.40;97640.88;5059815;28;20052;-78
2021/09/26 22:12:37;;;;;;;19.77;15.35;;;;;;;14.03;85.31;97628.06;5039915;28;20510;-78
2021/09/26 22:15:04;;;;;;;21.60;15.90;;;;;;;14.07;85.33;97631.09;5048810;28;20150;-78
2021/09/26 22:17:29;;;;;;;20.80;15.23;;;;;;;14.11;85.15;97632.19;5088890;28;20014;-78
2021/09/26 22:19:55;;;;;;;19.08;14.77;;;;;;;14.18;85.20;97636.28;5070484;28;20500;-78
2021/09/26 22:22:21;;;;;;;20.63;14.80;;;;;;;14.19;85.08;97637.06;5049309;28;20029;-78
2021/09/26 22:24:47;;;;;;;19.80;14.45;;;;;;;14.22;85.29;97641.19;5057656;28;20056;-78
2021/09/26 22:27:13;;;;;;;18.50;14.55;;;;;;;14.17;85.09;97634.66;5089978;28;20246;-78
2021/09/26 22:29:38;;;;;;;19.55;14.45;;;;;;;14.13;85.12;97630.81;5054374;28;20045;-78
2021/09/26 22:32:04;;;;;;;19.60;14.45;;;;;;;14.07;85.61;97634.59;5045152;28;20551;-77
2021/09/26 22:34:30;;;;;;;19.08;14.57;;;;;;;14.09;85.79;97637.91;5053634;28;20103;-77
2021/09/26 22:36:56;;;;;;;19.50;14.75;;;;;;;14.08;85.74;97628.06;5057060;28;20411;-78
2021/09/26 22:39:22;;;;;;;19.48;15.02;;;;;;;14.07;85.89;97631.88;5065736;28;20058;-78
2021/09/26 22:41:47;;;;;;;20.25;14.32;;;;;;;14.09;86.09;97628.91;5045333;28;20096;-77
2021/09/26 22:44:13;;;;;;;21.42;15.52;;;;;;;14.14;85.50;97627.00;5053624;28;20461;-78
2021/09/26 22:46:38;;;;;;;20.83;15.68;;;;;;;14.11;85.88;97629.47;5063392;28;20036;-77
2021/09/26 22:49:04;;;;;;;19.75;14.10;;;;;;;14.09;85.65;97620.72;5042832;28;20043;-78
2021/09/26 22:51:29;;;;;;;17.50;13.73;;;;;;;14.05;85.76;97621.25;5031762;28;20028;-77
2021/09/26 22:53:55;;;;;;;19.98;14.93;;;;;;;14.00;86.06;97613.09;5051105;28;20037;-78
2021/09/26 22:56:20;;;;;;;21.27;14.70;;;;;;;13.98;86.20;97617.16;5046720;28;20120;-78
2021/09/26 22:58:46;;;;;;;21.40;14.68;;;;;;;13.97;86.35;97610.88;5073640;28;20641;-77